Terminal Aerodrome Forecast
Issued by NWS Pocatello, ID

Home | Current Version | Previous Version | Text Only | Print | Product List | Glossary On
Versions: 1 2 3 4 5 6 7 8 9 10 11 12 13 14 15 16
318
FTUS45 KPIH 131126
TAFIDA
TAF
KIDA 131126Z 1312/1412 VRB05KT P6SM SCT100 BKN150
     FM131700 23012KT P6SM SCT040 SCT150
     FM132000 22018G28KT P6SM SCT040 SCT120
     FM140200 20015KT P6SM SCT040 BKN100
     FM140700 20012KT P6SM VCSH SCT025 BKN080=

USA.gov is the U.S. government's official web portal to all federal, state and local government web resources and services.